Time,TemperatureF,DewpointF,PressureIn,WindDirection,WindDirectionDegrees,WindSpeedMPH,WindSpeedGustMPH,Humidity,HourlyPrecipIn,Conditions,Clouds,dailyrainin,SoftwareType,DateUTC
2013-08-20 00:00:00,70.8,46.0,29.66,South,186,0.0,0.0,42,0.00,,,0.00,weatherlink.com 1.10,2013-08-20 06:00:00,
2013-08-20 00:15:00,70.6,45.0,29.67,South,186,0.0,1.0,40,0.00,,,0.00,weatherlink.com 1.10,2013-08-20 06:15:00,
2013-08-20 00:30:00,70.1,46.0,29.66,South,186,0.0,1.0,43,0.00,,,0.00,weatherlink.com 1.10,2013-08-20 06:30:00,
2013-08-20 00:45:00,70.3,46.0,29.66,South,186,0.0,1.0,42,0.00,,,0.00,weatherlink.com 1.10,2013-08-20 06:45:00,
2013-08-20 01:00:00,69.3,46.0,29.66,South,186,0.0,0.0,44,0.00,,,0.00,weatherlink.com 1.10,2013-08-20 07:00:00,
2013-08-20 01:15:00,68.7,45.0,29.66,South,186,0.0,0.0,42,0.00,,,0.00,weatherlink.com 1.10,2013-08-20 07:15:00,
2013-08-20 01:30:00,68.6,47.0,29.66,South,186,0.0,0.0,46,0.00,,,0.00,weatherlink.com 1.10,2013-08-20 07:30:00,
2013-08-20 01:45:00,65.5,47.0,29.66,South,186,0.0,0.0,52,0.00,,,0.00,weatherlink.com 1.10,2013-08-20 07:45:00,
2013-08-20 02:00:00,64.9,50.0,29.65,South,186,0.0,0.0,59,0.00,,,0.00,weatherlink.com 1.10,2013-08-20 08:00:00,
2013-08-20 02:15:00,64.7,50.0,29.66,South,186,0.0,0.0,60,0.00,,,0.00,weatherlink.com 1.10,2013-08-20 08:15:00,
2013-08-20 02:30:00,63.7,52.0,29.65,South,186,0.0,0.0,65,0.00,,,0.00,weatherlink.com 1.10,2013-08-20 08:30:00,
2013-08-20 02:45:00,63.7,52.0,29.65,South,186,0.0,0.0,67,0.00,,,0.00,weatherlink.com 1.10,2013-08-20 08:45:00,
2013-08-20 03:00:00,63.6,49.0,29.64,South,186,0.0,0.0,60,0.00,,,0.00,weatherlink.com 1.10,2013-08-20 09:00:00,
2013-08-20 03:16:00,64.8,49.0,29.64,South,186,0.0,0.0,56,0.00,,,0.00,weatherlink.com 1.10,2013-08-20 09:16:00,
2013-08-20 03:31:00,64.8,49.0,29.64,South,186,0.0,0.0,56,0.00,,,0.00,weatherlink.com 1.10,2013-08-20 09:31:00,
2013-08-20 03:46:00,65.0,47.0,29.64,South,186,0.0,0.0,52,0.00,,,0.00,weatherlink.com 1.10,2013-08-20 09:46:00,
2013-08-20 04:01:00,65.2,47.0,29.64,South,186,0.0,0.0,52,0.00,,,0.00,weatherlink.com 1.10,2013-08-20 10:01:00,
2013-08-20 04:16:00,64.7,47.0,29.64,South,186,0.0,0.0,53,0.00,,,0.00,weatherlink.com 1.10,2013-08-20 10:16:00,
2013-08-20 04:31:00,63.8,45.0,29.64,South,186,0.0,0.0,50,0.00,,,0.00,weatherlink.com 1.10,2013-08-20 10:31:00,
2013-08-20 04:46:00,63.9,48.0,29.64,South,186,0.0,0.0,56,0.00,,,0.00,weatherlink.com 1.10,2013-08-20 10:46:00,
2013-08-20 05:01:00,65.0,46.0,29.64,South,186,0.0,0.0,50,0.00,,,0.00,weatherlink.com 1.10,2013-08-20 11:01:00,
2013-08-20 05:16:00,65.7,48.0,29.64,South,186,0.0,0.0,54,0.00,,,0.00,weatherlink.com 1.10,2013-08-20 11:16:00,
2013-08-20 05:31:00,66.2,45.0,29.64,South,186,0.0,0.0,47,0.00,,,0.00,weatherlink.com 1.10,2013-08-20 11:31:00,
2013-08-20 05:46:00,65.8,45.0,29.64,South,186,0.0,0.0,48,0.00,,,0.00,weatherlink.com 1.10,2013-08-20 11:46:00,
2013-08-20 06:01:00,64.3,44.0,29.64,South,186,0.0,0.0,48,0.00,,,0.00,weatherlink.com 1.10,2013-08-20 12:01:00,
2013-08-20 06:16:00,64.3,44.0,29.65,South,186,0.0,2.0,48,0.00,,,0.00,weatherlink.com 1.10,2013-08-20 12:16:00,
2013-08-20 06:31:00,64.0,44.0,29.65,South,186,0.0,0.0,49,0.00,,,0.00,weatherlink.com 1.10,2013-08-20 12:31:00,
2013-08-20 06:46:00,64.2,43.0,29.66,South,186,0.0,0.0,47,0.00,,,0.00,weatherlink.com 1.10,2013-08-20 12:46:00,
2013-08-20 07:01:00,63.9,46.0,29.66,South,186,0.0,0.0,52,0.00,,,0.00,weatherlink.com 1.10,2013-08-20 13:01:00,
2013-08-20 07:16:00,64.4,46.0,29.66,South,186,0.0,0.0,52,0.00,,,0.00,weatherlink.com 1.10,2013-08-20 13:16:00,
2013-08-20 07:31:00,66.0,47.0,29.66,South,186,0.0,0.0,51,0.00,,,0.00,weatherlink.com 1.10,2013-08-20 13:31:00,
2013-08-20 07:46:00,67.7,49.0,29.66,South,186,0.0,0.0,51,0.00,,,0.00,weatherlink.com 1.10,2013-08-20 13:46:00,
2013-08-20 08:01:00,70.5,49.0,29.66,South,186,0.0,0.0,46,0.00,,,0.00,weatherlink.com 1.10,2013-08-20 14:01:00,
2013-08-20 08:16:00,73.3,51.0,29.66,South,186,0.0,0.0,45,0.00,,,0.00,weatherlink.com 1.10,2013-08-20 14:16:00,
2013-08-20 08:31:00,73.0,51.0,29.65,South,186,0.0,3.0,47,0.00,,,0.00,weatherlink.com 1.10,2013-08-20 14:31:00,
2013-08-20 08:46:00,73.5,49.0,29.65,South,186,2.0,3.0,42,0.00,,,0.00,weatherlink.com 1.10,2013-08-20 14:46:00,
2013-08-20 09:01:00,74.9,50.0,29.65,South,186,3.0,6.0,41,0.00,,,0.00,weatherlink.com 1.10,2013-08-20 15:01:00,
2013-08-20 09:16:00,75.9,51.0,29.64,South,186,3.0,5.0,42,0.00,,,0.00,weatherlink.com 1.10,2013-08-20 15:16:00,
2013-08-20 09:31:00,77.1,50.0,29.64,South,186,1.0,5.0,38,0.00,,,0.00,weatherlink.com 1.10,2013-08-20 15:31:00,
2013-08-20 09:46:00,78.2,52.0,29.64,South,186,2.0,4.0,40,0.00,,,0.00,weatherlink.com 1.10,2013-08-20 15:46:00,
2013-08-20 10:01:00,79.8,51.0,29.64,South,186,1.0,5.0,37,0.00,,,0.00,weatherlink.com 1.10,2013-08-20 16:01:00,
2013-08-20 10:16:00,80.8,50.0,29.64,South,186,3.0,5.0,34,0.00,,,0.00,weatherlink.com 1.10,2013-08-20 16:16:00,
2013-08-20 10:31:00,81.8,49.0,29.64,South,186,2.0,5.0,32,0.00,,,0.00,weatherlink.com 1.10,2013-08-20 16:31:00,
2013-08-20 10:46:00,83.1,49.0,29.64,South,186,1.0,5.0,31,0.00,,,0.00,weatherlink.com 1.10,2013-08-20 16:46:00,
2013-08-20 11:01:00,84.8,51.0,29.63,South,186,1.0,5.0,31,0.00,,,0.00,weatherlink.com 1.10,2013-08-20 17:01:00,
2013-08-20 11:16:00,86.3,50.0,29.63,South,186,4.0,5.0,28,0.00,,,0.00,weatherlink.com 1.10,2013-08-20 17:16:00,
2013-08-20 11:32:00,87.5,52.0,29.63,South,186,6.0,6.0,29,0.00,,,0.00,weatherlink.com 1.10,2013-08-20 17:32:00,
2013-08-20 11:47:00,89.3,51.0,29.62,South,186,4.0,8.0,27,0.00,,,0.00,weatherlink.com 1.10,2013-08-20 17:47:00,
2013-08-20 12:02:00,90.1,51.0,29.62,South,179,6.0,7.0,26,0.00,,,0.00,weatherlink.com 1.10,2013-08-20 18:02:00,
2013-08-20 12:17:00,91.7,49.0,29.61,SE,124,6.0,8.0,23,0.00,,,0.00,weatherlink.com 1.10,2013-08-20 18:17:00,
2013-08-20 12:32:00,93.3,47.0,29.61,SE,138,5.0,9.0,20,0.00,,,0.00,weatherlink.com 1.10,2013-08-20 18:32:00,
2013-08-20 12:47:00,94.5,45.0,29.61,SE,140,6.0,9.0,18,0.00,,,0.00,weatherlink.com 1.10,2013-08-20 18:47:00,
2013-08-20 13:02:00,94.7,44.0,29.60,SE,126,5.0,11.0,17,0.00,,,0.00,weatherlink.com 1.10,2013-08-20 19:02:00,
2013-08-20 13:17:00,95.4,41.0,29.60,ESE,119,7.0,11.0,15,0.00,,,0.00,weatherlink.com 1.10,2013-08-20 19:17:00,
2013-08-20 13:32:00,95.1,35.0,29.60,ESE,105,9.0,11.0,12,0.00,,,0.00,weatherlink.com 1.10,2013-08-20 19:32:00,
2013-08-20 13:47:00,96.0,33.0,29.60,SE,131,2.0,12.0,11,0.00,,,0.00,weatherlink.com 1.10,2013-08-20 19:47:00,
2013-08-20 14:02:00,96.2,34.0,29.59,SSE,153,6.0,13.0,11,0.00,,,0.00,weatherlink.com 1.10,2013-08-20 20:02:00,
2013-08-20 14:17:00,96.5,40.0,29.59,SE,139,10.0,13.0,14,0.00,,,0.00,weatherlink.com 1.10,2013-08-20 20:17:00,
2013-08-20 14:32:00,96.1,38.0,29.59,SE,137,3.0,10.0,13,0.00,,,0.00,weatherlink.com 1.10,2013-08-20 20:32:00,
2013-08-20 14:47:00,96.2,40.0,29.58,SE,134,8.0,11.0,14,0.00,,,0.00,weatherlink.com 1.10,2013-08-20 20:47:00,
2013-08-20 15:02:00,96.7,40.0,29.58,SE,144,4.0,8.0,14,0.00,,,0.00,weatherlink.com 1.10,2013-08-20 21:02:00,
2013-08-20 15:17:00,96.9,36.0,29.58,SE,136,5.0,8.0,12,0.00,,,0.00,weatherlink.com 1.10,2013-08-20 21:17:00,
2013-08-20 15:32:00,97.3,39.0,29.57,ESE,109,5.0,10.0,13,0.00,,,0.00,weatherlink.com 1.10,2013-08-20 21:32:00,
2013-08-20 15:47:00,95.7,37.0,29.57,SE,135,2.0,5.0,13,0.00,,,0.00,weatherlink.com 1.10,2013-08-20 21:47:00,
2013-08-20 16:02:00,95.0,35.0,29.57,SE,135,0.0,2.0,12,0.00,,,0.00,weatherlink.com 1.10,2013-08-20 22:02:00,
2013-08-20 16:17:00,95.0,41.0,29.57,SE,135,0.0,2.0,15,0.00,,,0.00,weatherlink.com 1.10,2013-08-20 22:17:00,
2013-08-20 16:32:00,94.0,40.0,29.57,SE,135,0.0,3.0,15,0.00,,,0.00,weatherlink.com 1.10,2013-08-20 22:32:00,
2013-08-20 16:47:00,93.9,36.0,29.57,SE,135,0.0,0.0,13,0.00,,,0.00,weatherlink.com 1.10,2013-08-20 22:47:00,
2013-08-20 17:02:00,92.9,42.0,29.57,SE,135,0.0,2.0,17,0.00,,,0.00,weatherlink.com 1.10,2013-08-20 23:02:00,
2013-08-20 17:17:00,91.7,41.0,29.57,East,88,1.0,7.0,17,0.00,,,0.00,weatherlink.com 1.10,2013-08-20 23:17:00,
2013-08-20 17:32:00,91.1,41.0,29.57,NNE,15,1.0,8.0,17,0.00,,,0.00,weatherlink.com 1.10,2013-08-20 23:32:00,
2013-08-20 17:47:00,89.8,42.0,29.58,North,355,7.0,11.0,19,0.00,,,0.00,weatherlink.com 1.10,2013-08-20 23:47:00,
2013-08-20 18:02:00,88.6,41.0,29.58,NNW,345,13.0,14.0,19,0.00,,,0.00,weatherlink.com 1.10,2013-08-21 00:02:00,
2013-08-20 18:17:00,87.8,42.0,29.59,NNW,342,5.0,11.0,20,0.00,,,0.00,weatherlink.com 1.10,2013-08-21 00:17:00,
2013-08-20 18:32:00,87.0,43.0,29.59,North,355,7.0,10.0,21,0.00,,,0.00,weatherlink.com 1.10,2013-08-21 00:32:00,
2013-08-20 18:47:00,86.5,43.0,29.59,North,360,4.0,8.0,22,0.00,,,0.00,weatherlink.com 1.10,2013-08-21 00:47:00,
2013-08-20 19:02:00,85.1,44.0,29.60,NNE,14,7.0,9.0,24,0.00,,,0.00,weatherlink.com 1.10,2013-08-21 01:02:00,
2013-08-20 19:17:00,85.1,44.0,29.61,North,355,7.0,12.0,24,0.00,,,0.00,weatherlink.com 1.10,2013-08-21 01:17:00,
2013-08-20 19:32:00,84.1,46.0,29.61,North,355,3.0,7.0,26,0.00,,,0.00,weatherlink.com 1.10,2013-08-21 01:32:00,
2013-08-20 19:47:00,83.5,45.0,29.62,NNE,14,1.0,2.0,26,0.00,,,0.00,weatherlink.com 1.10,2013-08-21 01:47:00,
2013-08-20 20:02:00,83.7,45.0,29.62,NNW,347,6.0,10.0,26,0.00,,,0.00,weatherlink.com 1.10,2013-08-21 02:02:00,
2013-08-20 20:17:00,82.8,45.0,29.63,NW,317,1.0,2.0,26,0.00,,,0.00,weatherlink.com 1.10,2013-08-21 02:17:00,
2013-08-20 20:32:00,82.0,46.0,29.64,NW,317,0.0,1.0,28,0.00,,,0.00,weatherlink.com 1.10,2013-08-21 02:32:00,
2013-08-20 20:47:00,80.5,45.0,29.64,NNW,338,0.0,1.0,29,0.00,,,0.00,weatherlink.com 1.10,2013-08-21 02:47:00,
2013-08-20 21:02:00,80.9,45.0,29.65,North,5,0.0,1.0,28,0.00,,,0.00,weatherlink.com 1.10,2013-08-21 03:02:00,
2013-08-20 21:17:00,81.4,45.0,29.66,North,5,0.0,1.0,28,0.00,,,0.00,weatherlink.com 1.10,2013-08-21 03:17:00,
2013-08-20 21:32:00,78.9,46.0,29.66,North,5,0.0,1.0,31,0.00,,,0.00,weatherlink.com 1.10,2013-08-21 03:32:00,
2013-08-20 21:47:00,77.2,47.0,29.66,North,5,0.0,1.0,34,0.00,,,0.00,weatherlink.com 1.10,2013-08-21 03:47:00,
2013-08-20 22:02:00,76.5,46.0,29.66,North,5,0.0,0.0,34,0.00,,,0.00,weatherlink.com 1.10,2013-08-21 04:02:00,
2013-08-20 22:17:00,76.1,46.0,29.66,North,5,0.0,0.0,35,0.00,,,0.00,weatherlink.com 1.10,2013-08-21 04:17:00,
2013-08-20 22:32:00,72.5,49.0,29.65,North,5,0.0,1.0,44,0.00,,,0.00,weatherlink.com 1.10,2013-08-21 04:32:00,
2013-08-20 22:48:00,70.7,50.0,29.65,North,5,1.0,1.0,49,0.00,,,0.00,weatherlink.com 1.10,2013-08-21 04:48:00,
2013-08-20 23:03:00,70.2,49.0,29.65,North,5,0.0,2.0,47,0.00,,,0.00,weatherlink.com 1.10,2013-08-21 05:03:00,
2013-08-20 23:18:00,71.8,47.0,29.65,NW,309,1.0,6.0,41,0.00,,,0.00,weatherlink.com 1.10,2013-08-21 05:18:00,
2013-08-20 23:33:00,72.3,47.0,29.65,WNW,293,1.0,6.0,40,0.00,,,0.00,weatherlink.com 1.10,2013-08-21 05:33:00,
2013-08-20 23:48:00,72.0,47.0,29.65,WNW,293,0.0,6.0,41,0.00,,,0.00,weatherlink.com 1.10,2013-08-21 05:48:00,